createdAt,value
2022-08-16T00:02:25.226Z,11.55
2022-08-16T00:04:54.109Z,10.60
2022-08-16T00:07:29.117Z,11.93
2022-08-16T00:09:58.840Z,11.75
2022-08-16T00:12:28.111Z,12.75
2022-08-16T00:15:12.076Z,12.82
2022-08-16T00:17:56.240Z,12.43
2022-08-16T00:20:25.784Z,12.30
2022-08-16T00:22:54.471Z,13.38
2022-08-16T00:26:34.701Z,12.57
2022-08-16T00:28:13.471Z,12.00
2022-08-16T00:30:44.915Z,11.98
2022-08-16T00:33:13.574Z,13.25
2022-08-16T00:35:41.959Z,12.60
2022-08-16T00:38:41.326Z,11.65
2022-08-16T00:41:02.054Z,14.38
2022-08-16T00:43:42.413Z,13.65
2022-08-16T00:46:22.291Z,13.55
2022-08-16T00:49:02.921Z,13.43
2022-08-16T00:51:32.199Z,13.07
2022-08-16T00:54:02.288Z,13.50
2022-08-16T00:56:58.158Z,15.00
2022-08-16T00:59:26.854Z,15.48
2022-08-16T01:01:57.155Z,14.65
2022-08-16T01:04:30.939Z,14.60
2022-08-16T01:07:02.650Z,15.73
2022-08-16T01:09:33.160Z,14.93
2022-08-16T01:12:03.161Z,14.75
2022-08-16T01:14:38.701Z,14.43
2022-08-16T01:17:09.963Z,14.02
2022-08-16T01:19:43.829Z,16.98
2022-08-16T01:22:48.280Z,14.85
2022-08-16T01:25:12.886Z,14.80
2022-08-16T01:27:44.069Z,15.50
2022-08-16T01:30:20.084Z,15.23
2022-08-16T01:33:01.763Z,14.73
2022-08-16T01:35:41.523Z,14.07
2022-08-16T01:38:20.501Z,17.10
2022-08-16T01:40:51.140Z,14.25
2022-08-16T01:43:20.412Z,15.73
2022-08-16T01:45:58.315Z,16.42
2022-08-16T01:48:29.908Z,16.65
2022-08-16T01:51:09.203Z,15.45
2022-08-16T01:53:53.582Z,14.85
2022-08-16T01:56:26.540Z,15.10
2022-08-16T01:58:57.145Z,13.40
2022-08-16T02:01:28.184Z,14.40
2022-08-16T02:03:58.728Z,14.55
2022-08-16T02:06:39.365Z,15.55
2022-08-16T02:09:11.659Z,16.52
2022-08-16T02:11:48.582Z,16.30
2022-08-16T02:14:26.606Z,15.25
2022-08-16T02:16:58.028Z,16.30
2022-08-16T02:19:59.286Z,14.90
2022-08-16T02:22:33.577Z,15.50
2022-08-16T02:25:06.697Z,16.98
2022-08-16T02:27:37.953Z,15.77
2022-08-16T02:30:08.311Z,16.60
2022-08-16T02:32:50.007Z,14.75
2022-08-16T02:35:26.588Z,15.10
2022-08-16T02:37:56.347Z,14.88
2022-08-16T02:40:30.642Z,16.63
2022-08-16T02:43:00.684Z,17.08
2022-08-16T02:45:32.181Z,17.77
2022-08-16T02:48:29.179Z,16.08
2022-08-16T02:50:53.706Z,15.45
2022-08-16T02:53:23.907Z,17.75
2022-08-16T02:55:52.920Z,18.20
2022-08-16T02:58:24.885Z,18.63
2022-08-16T03:00:55.993Z,19.00
2022-08-16T03:03:26.288Z,19.73
2022-08-16T03:05:55.648Z,19.63
2022-08-16T03:08:51.238Z,17.65
2022-08-16T03:11:17.829Z,18.20
2022-08-16T03:13:56.532Z,18.98
2022-08-16T03:16:36.570Z,19.55
2022-08-16T03:19:08.323Z,18.40
2022-08-16T03:21:38.725Z,20.80
2022-08-16T03:24:28.339Z,17.02
2022-08-16T03:26:57.694Z,17.35
2022-08-16T03:29:30.371Z,20.23
2022-08-16T03:31:59.594Z,17.42
2022-08-16T03:34:30.222Z,16.65
2022-08-16T03:37:00.111Z,18.38
2022-08-16T03:39:29.197Z,17.13
2022-08-16T03:41:59.845Z,18.80
2022-08-16T03:44:44.208Z,17.67
2022-08-16T03:47:19.757Z,17.10
2022-08-16T03:49:51.512Z,16.85
2022-08-16T03:52:20.653Z,17.48
2022-08-16T03:54:58.074Z,18.98
2022-08-16T03:57:31.740Z,18.63
2022-08-16T04:00:20.210Z,16.35
2022-08-16T04:02:49.369Z,16.92
2022-08-16T04:05:19.141Z,16.73
2022-08-16T04:07:51.151Z,17.88
2022-08-16T04:10:35.884Z,16.20
2022-08-16T04:13:06.295Z,17.60
2022-08-16T04:15:52.894Z,16.35
2022-08-16T04:18:21.578Z,18.05
2022-08-16T04:20:50.774Z,16.75
2022-08-16T04:23:19.164Z,18.70
2022-08-16T04:25:47.603Z,19.08
2022-08-16T04:28:51.607Z,18.40
2022-08-16T04:31:07.400Z,18.20
2022-08-16T04:33:39.197Z,15.88
2022-08-16T04:36:20.566Z,17.10
2022-08-16T04:38:52.534Z,15.88
2022-08-16T04:41:32.365Z,14.95
2022-08-16T04:44:02.026Z,17.08
2022-08-16T04:47:03.162Z,17.55
2022-08-16T04:49:46.106Z,15.52
2022-08-16T04:52:33.748Z,15.07
2022-08-16T04:55:03.728Z,17.33
2022-08-16T04:57:31.921Z,17.90
2022-08-16T05:00:31.899Z,18.77
2022-08-16T05:02:55.984Z,20.10
2022-08-16T05:05:32.669Z,20.90
2022-08-16T05:08:29.785Z,19.65
2022-08-16T05:10:50.244Z,21.25
2022-08-16T05:13:19.308Z,19.55
2022-08-16T05:15:49.782Z,21.13
2022-08-16T05:18:26.852Z,20.75
2022-08-16T05:21:01.491Z,20.00
2022-08-16T05:23:38.205Z,17.85
2022-08-16T05:26:06.713Z,16.63
2022-08-16T05:28:55.183Z,18.58
2022-08-16T05:31:29.597Z,16.80
2022-08-16T05:34:03.126Z,20.60
2022-08-16T05:36:33.837Z,19.80
2022-08-16T05:39:04.844Z,21.23
2022-08-16T05:41:33.033Z,19.33
2022-08-16T05:44:23.804Z,19.95
2022-08-16T05:46:54.945Z,20.95
2022-08-16T05:49:38.603Z,19.15
2022-08-16T05:52:11.528Z,17.00
2022-08-16T05:54:47.211Z,18.20
2022-08-16T05:57:20.554Z,17.13
2022-08-16T05:59:50.595Z,16.63
2022-08-16T06:02:33.211Z,14.80
2022-08-16T06:05:04.879Z,14.80
2022-08-16T06:07:33.221Z,15.63
2022-08-16T06:10:02.269Z,16.08
2022-08-16T06:12:31.489Z,15.88
2022-08-16T06:15:04.255Z,16.92
2022-08-16T06:17:42.951Z,16.98
2022-08-16T06:20:18.300Z,17.10
2022-08-16T06:22:58.482Z,17.27
2022-08-16T06:25:36.611Z,16.90
2022-08-16T06:28:09.660Z,17.63
2022-08-16T06:30:44.160Z,17.70
2022-08-16T06:33:19.752Z,17.80
2022-08-16T06:35:55.054Z,17.70
2022-08-16T06:38:34.059Z,16.23
2022-08-16T06:41:05.628Z,16.77
2022-08-16T06:43:34.898Z,15.18
2022-08-16T06:46:06.540Z,13.95
2022-08-16T06:48:42.819Z,12.98
2022-08-16T06:51:14.954Z,12.52
2022-08-16T06:53:43.587Z,11.38
2022-08-16T06:56:14.270Z,11.98
2022-08-16T06:58:52.766Z,11.40
2022-08-16T07:01:44.357Z,11.75
2022-08-16T07:04:12.106Z,9.95
2022-08-16T07:06:43.268Z,10.50
2022-08-16T07:09:12.873Z,10.85
2022-08-16T07:11:47.407Z,10.85
2022-08-16T07:14:25.193Z,10.75
2022-08-16T07:16:58.942Z,10.18
2022-08-16T07:20:02.165Z,10.88
2022-08-16T07:22:37.811Z,11.90
2022-08-16T07:25:11.779Z,10.27
2022-08-16T07:27:41.355Z,9.37
2022-08-16T07:30:45.414Z,11.27
2022-08-16T07:33:02.292Z,10.13
2022-08-16T07:35:31.107Z,11.73
2022-08-16T07:38:01.157Z,10.00
2022-08-16T07:40:58.093Z,11.18
2022-08-16T07:43:18.292Z,9.95
2022-08-16T07:45:52.903Z,9.70
2022-08-16T07:48:24.089Z,9.90
2022-08-16T07:50:55.545Z,9.25
2022-08-16T07:53:29.369Z,10.23
2022-08-16T07:55:58.272Z,10.02
2022-08-16T07:58:34.475Z,8.55
2022-08-16T08:01:10.511Z,8.00
2022-08-16T08:03:47.725Z,9.75
2022-08-16T08:06:17.847Z,8.35
2022-08-16T08:08:50.702Z,9.02
2022-08-16T08:11:21.802Z,9.13
2022-08-16T08:13:53.432Z,8.07
2022-08-16T08:16:30.568Z,7.38
2022-08-16T08:19:02.511Z,8.13
2022-08-16T08:22:00.151Z,8.30
2022-08-16T08:24:32.086Z,7.82
2022-08-16T08:27:03.908Z,8.13
2022-08-16T08:29:37.296Z,7.93
2022-08-16T08:32:58.264Z,7.65
2022-08-16T08:35:03.356Z,7.70
2022-08-16T08:37:54.740Z,7.65
2022-08-16T08:40:24.716Z,7.88
2022-08-16T08:42:57.876Z,7.45
2022-08-16T08:45:46.702Z,7.60
2022-08-16T08:48:33.403Z,7.80
2022-08-16T08:51:04.632Z,6.55
2022-08-16T08:53:33.688Z,6.38
2022-08-16T08:56:23.806Z,6.90
2022-08-16T08:58:59.211Z,6.88
2022-08-16T09:01:36.775Z,6.30
2022-08-16T09:04:14.427Z,5.63
2022-08-16T09:06:44.409Z,5.10
2022-08-16T09:09:16.803Z,4.40
2022-08-16T09:11:53.681Z,4.50
2022-08-16T09:14:35.781Z,4.80
2022-08-16T09:17:21.643Z,5.00
2022-08-16T09:19:57.188Z,5.40
2022-08-16T09:22:28.933Z,5.15
2022-08-16T09:25:11.077Z,5.50
2022-08-16T09:27:56.539Z,5.40
2022-08-16T09:30:33.642Z,5.13
2022-08-16T09:33:03.609Z,5.88
2022-08-16T09:35:37.292Z,5.38
2022-08-16T09:38:08.755Z,5.72
2022-08-16T09:40:42.724Z,5.70
2022-08-16T09:43:37.646Z,5.22
2022-08-16T09:46:03.616Z,5.28
2022-08-16T09:48:53.013Z,4.80
2022-08-16T09:54:05.918Z,5.68
2022-08-16T09:56:36.523Z,5.15
2022-08-16T09:59:09.475Z,4.93
2022-08-16T10:01:43.646Z,4.80
2022-08-16T10:04:29.333Z,5.57
2022-08-16T10:07:02.347Z,4.75
2022-08-16T10:09:45.170Z,4.35
2022-08-16T10:15:15.408Z,3.95
2022-08-16T10:18:00.141Z,5.15
2022-08-16T10:20:34.783Z,4.63
2022-08-16T10:23:08.426Z,5.00
2022-08-16T10:27:20.111Z,4.50
2022-08-16T10:28:39.915Z,4.57
2022-08-16T10:31:16.970Z,4.72
2022-08-16T10:34:02.643Z,5.03
2022-08-16T10:36:39.277Z,4.55
2022-08-16T10:39:08.935Z,4.70
2022-08-16T10:41:37.161Z,5.03
2022-08-16T10:44:09.432Z,4.45
2022-08-16T10:46:41.892Z,5.22
2022-08-16T10:49:11.833Z,4.53
2022-08-16T10:52:02.601Z,4.55
2022-08-16T10:54:30.179Z,5.15
2022-08-16T10:56:59.574Z,5.05
2022-08-16T10:59:39.230Z,4.65
2022-08-16T11:02:59.694Z,4.93
2022-08-16T11:05:11.679Z,4.70
2022-08-16T11:07:43.415Z,4.80
2022-08-16T11:10:57.055Z,4.95
2022-08-16T11:15:57.586Z,4.60
2022-08-16T11:19:03.205Z,4.10
2022-08-16T11:21:29.086Z,4.70
2022-08-16T11:23:59.832Z,3.85
2022-08-16T11:26:29.780Z,4.47
2022-08-16T11:29:15.141Z,4.03
2022-08-16T11:31:45.881Z,4.43
2022-08-16T11:34:23.857Z,3.90
2022-08-16T11:37:00.928Z,3.78
2022-08-16T11:39:29.837Z,3.80
2022-08-16T11:41:59.599Z,3.60
2022-08-16T11:44:52.007Z,3.90
2022-08-16T11:47:16.270Z,4.10
2022-08-16T11:49:45.970Z,4.00
2022-08-16T11:52:14.135Z,4.20
2022-08-16T11:54:46.104Z,4.20
2022-08-16T11:57:25.143Z,3.90
2022-08-16T11:59:55.473Z,3.97
2022-08-16T12:02:31.658Z,3.78
2022-08-16T12:05:02.465Z,3.60
2022-08-16T12:07:33.227Z,4.15
2022-08-16T12:10:02.210Z,4.82
2022-08-16T12:12:30.752Z,3.88
2022-08-16T12:15:01.076Z,3.83
2022-08-16T12:17:31.485Z,4.38
2022-08-16T12:20:02.202Z,4.30
2022-08-16T12:25:06.048Z,4.20
2022-08-16T12:27:35.352Z,4.50
2022-08-16T12:30:21.795Z,4.22
2022-08-16T12:32:57.762Z,4.82
2022-08-16T12:35:29.771Z,4.43
2022-08-16T12:37:59.613Z,4.35
2022-08-16T12:40:32.936Z,4.40
2022-08-16T12:43:02.869Z,4.25
2022-08-16T12:45:33.980Z,4.30
2022-08-16T12:48:33.941Z,3.88
2022-08-16T12:51:10.887Z,4.20
2022-08-16T12:53:48.048Z,4.35
2022-08-16T12:56:19.638Z,4.30
2022-08-16T12:58:51.442Z,4.47
2022-08-16T13:01:22.706Z,3.97
2022-08-16T13:04:08.170Z,4.80
2022-08-16T13:06:41.343Z,4.13
2022-08-16T13:09:20.849Z,4.70
2022-08-16T13:12:00.371Z,4.40
2022-08-16T13:14:33.560Z,4.80
2022-08-16T13:17:05.203Z,4.53
2022-08-16T13:20:03.782Z,5.30
2022-08-16T13:22:25.858Z,5.38
2022-08-16T13:24:54.817Z,4.80
2022-08-16T13:28:01.731Z,4.90
2022-08-16T13:30:36.519Z,5.25
2022-08-16T13:33:11.202Z,5.10
2022-08-16T13:35:44.285Z,4.97
2022-08-16T13:38:24.760Z,5.35
2022-08-16T13:40:56.175Z,5.65
2022-08-16T13:43:26.278Z,5.40
2022-08-16T13:45:55.799Z,6.05
2022-08-16T13:48:25.691Z,6.03
2022-08-16T13:50:55.150Z,5.72
2022-08-16T13:53:28.411Z,5.20
2022-08-16T13:55:58.906Z,5.43
2022-08-16T13:58:37.494Z,5.45
2022-08-16T14:01:17.173Z,5.32
2022-08-16T14:03:46.330Z,6.28
2022-08-16T14:06:15.687Z,5.65
2022-08-16T14:08:59.315Z,5.68
2022-08-16T14:11:36.096Z,5.47
2022-08-16T14:14:06.314Z,6.40
2022-08-16T14:16:35.330Z,6.45
2022-08-16T14:19:07.884Z,5.70
2022-08-16T14:21:37.294Z,5.88
2022-08-16T14:24:22.500Z,5.93
2022-08-16T14:26:56.405Z,6.45
2022-08-16T14:29:25.773Z,6.25
2022-08-16T14:31:59.008Z,5.93
2022-08-16T14:34:30.024Z,6.53
2022-08-16T14:36:59.490Z,6.00
2022-08-16T14:39:30.001Z,6.10
2022-08-16T14:42:08.038Z,6.72
2022-08-16T14:44:40.421Z,6.88
2022-08-16T14:47:09.185Z,7.18
2022-08-16T14:49:40.800Z,6.47
2022-08-16T14:52:12.533Z,6.57
2022-08-16T14:54:46.586Z,6.88
2022-08-16T14:57:16.434Z,6.03
2022-08-16T14:59:46.143Z,6.40
2022-08-16T15:02:17.295Z,5.60
2022-08-16T15:05:04.637Z,6.90
2022-08-16T15:07:35.375Z,6.43
2022-08-16T15:10:06.597Z,6.43
2022-08-16T15:12:36.061Z,6.63
2022-08-16T15:15:12.395Z,6.28
2022-08-16T15:17:42.107Z,6.25
2022-08-16T15:20:23.218Z,6.05
2022-08-16T15:22:55.187Z,6.80
2022-08-16T15:25:29.260Z,6.32
2022-08-16T15:27:58.609Z,6.55
2022-08-16T15:30:57.875Z,6.32
2022-08-16T15:33:19.605Z,7.05
2022-08-16T15:35:50.258Z,7.70
2022-08-16T15:38:31.691Z,7.30
2022-08-16T15:41:09.368Z,7.05
2022-08-16T15:43:41.482Z,7.47
2022-08-16T15:46:35.346Z,8.40
2022-08-16T15:51:43.488Z,7.32
2022-08-16T15:54:21.485Z,6.97
2022-08-16T15:57:09.612Z,7.50
2022-08-16T15:59:48.798Z,8.02
2022-08-16T16:02:29.785Z,8.13
2022-08-16T16:05:01.552Z,7.25
2022-08-16T16:07:33.302Z,7.38
2022-08-16T16:10:02.818Z,7.43
2022-08-16T16:12:53.611Z,7.60
2022-08-16T16:15:24.523Z,7.53
2022-08-16T16:17:53.604Z,8.00
2022-08-16T16:20:24.369Z,7.65
2022-08-16T16:22:59.628Z,7.78
2022-08-16T16:25:29.892Z,7.38
2022-08-16T16:28:01.814Z,7.22
2022-08-16T16:30:33.427Z,8.00
2022-08-16T16:33:06.728Z,6.80
2022-08-16T16:35:36.356Z,7.70
2022-08-16T16:38:08.106Z,7.00
2022-08-16T16:40:46.370Z,6.90
2022-08-16T16:43:17.378Z,7.03
2022-08-16T16:45:46.047Z,6.25
2022-08-16T16:48:14.272Z,6.65
2022-08-16T16:50:46.280Z,6.90
2022-08-16T16:53:17.977Z,6.07
2022-08-16T16:55:52.473Z,7.90
2022-08-16T16:58:43.153Z,7.55
2022-08-16T17:01:12.913Z,7.80
2022-08-16T17:03:42.308Z,8.15
2022-08-16T17:06:11.155Z,8.80
2022-08-16T17:08:40.768Z,8.95
2022-08-16T17:11:10.036Z,9.05
2022-08-16T17:13:40.051Z,9.00
2022-08-16T17:16:18.581Z,9.00
2022-08-16T17:19:16.195Z,9.05
2022-08-16T17:21:37.150Z,9.73
2022-08-16T17:24:17.857Z,8.38
2022-08-16T17:26:48.937Z,9.13
2022-08-16T17:29:20.342Z,9.48
2022-08-16T17:31:49.877Z,9.48
2022-08-16T17:34:29.561Z,8.43
2022-08-16T17:37:00.664Z,9.55
2022-08-16T17:39:35.495Z,8.82
2022-08-16T17:42:25.389Z,9.00
2022-08-16T17:44:55.572Z,8.93
2022-08-16T17:47:26.100Z,9.95
2022-08-16T17:49:54.548Z,10.13
2022-08-16T17:52:22.919Z,9.57
2022-08-16T17:54:51.258Z,9.82
2022-08-16T17:57:19.782Z,8.50
2022-08-16T17:59:49.035Z,8.90
2022-08-16T18:02:42.806Z,9.57
2022-08-16T18:05:15.069Z,9.05
2022-08-16T18:07:44.045Z,11.75
2022-08-16T18:10:13.492Z,11.70
2022-08-16T18:12:58.486Z,9.63
2022-08-16T18:15:27.232Z,11.07
2022-08-16T18:17:57.102Z,12.23
2022-08-16T18:20:43.045Z,11.30
2022-08-16T18:23:15.065Z,10.57
2022-08-16T18:25:44.750Z,12.68
2022-08-16T18:28:13.748Z,12.27
2022-08-16T18:30:42.702Z,11.25
2022-08-16T18:33:12.789Z,12.13
2022-08-16T18:35:41.236Z,12.27
2022-08-16T18:38:09.497Z,14.48
2022-08-16T18:40:37.946Z,11.55
2022-08-16T18:43:08.537Z,13.52
2022-08-16T18:45:38.755Z,10.90
2022-08-16T18:48:09.393Z,11.10
2022-08-16T18:51:03.446Z,10.90
2022-08-16T18:53:29.997Z,12.95
2022-08-16T18:56:01.629Z,13.32
2022-08-16T18:58:32.965Z,12.93
2022-08-16T19:01:01.575Z,11.52
2022-08-16T19:03:32.770Z,13.20
2022-08-16T19:06:05.117Z,13.98
2022-08-16T19:08:36.086Z,13.32
2022-08-16T19:11:06.278Z,12.20
2022-08-16T19:13:36.496Z,13.35
2022-08-16T19:16:05.825Z,12.50
2022-08-16T19:18:36.757Z,14.93
2022-08-16T19:21:07.607Z,15.77
2022-08-16T19:23:37.266Z,16.55
2022-08-16T19:26:10.783Z,15.68
2022-08-16T19:28:50.598Z,17.30
2022-08-16T19:31:30.233Z,15.82
2022-08-16T19:34:00.156Z,17.27
2022-08-16T19:36:35.755Z,17.23
2022-08-16T19:39:08.802Z,16.73
2022-08-16T19:41:39.319Z,18.52
2022-08-16T19:44:08.169Z,16.98
2022-08-16T19:46:37.778Z,17.27
2022-08-16T19:49:06.858Z,17.88
2022-08-16T19:51:37.809Z,17.20
2022-08-16T19:54:06.669Z,19.25
2022-08-16T19:56:35.071Z,18.80
2022-08-16T19:59:21.013Z,19.83
2022-08-16T20:01:52.379Z,17.30
2022-08-16T20:04:21.851Z,19.98
2022-08-16T20:06:52.442Z,17.65
2022-08-16T20:09:21.404Z,18.92
2022-08-16T20:11:50.402Z,20.25
2022-08-16T20:14:25.130Z,20.27
2022-08-16T20:16:56.680Z,20.13
2022-08-16T20:19:25.067Z,20.85
2022-08-16T20:21:56.408Z,23.17
2022-08-16T20:24:35.279Z,20.77
2022-08-16T20:27:06.134Z,22.17
2022-08-16T20:29:34.809Z,20.25
2022-08-16T20:32:03.031Z,23.40
2022-08-16T20:34:31.780Z,24.77
2022-08-16T20:37:01.528Z,24.95
2022-08-16T20:39:29.837Z,24.75
2022-08-16T20:41:58.456Z,24.02
2022-08-16T20:44:26.997Z,20.02
2022-08-16T20:46:55.173Z,18.92
2022-08-16T20:49:23.776Z,20.25
2022-08-16T20:51:56.064Z,20.55
2022-08-16T20:54:29.523Z,23.70
2022-08-16T20:56:57.946Z,23.45
2022-08-16T20:59:26.234Z,22.17
2022-08-16T21:01:54.715Z,22.20
2022-08-16T21:04:26.542Z,23.60
2022-08-16T21:06:56.128Z,22.20
2022-08-16T21:09:26.062Z,22.83
2022-08-16T21:11:57.769Z,23.90
2022-08-16T21:14:26.460Z,25.42
2022-08-16T21:16:56.151Z,25.63
2022-08-16T21:19:24.900Z,25.30
2022-08-16T21:21:53.044Z,27.90
2022-08-16T21:24:21.727Z,25.40
2022-08-16T21:26:55.456Z,25.55
2022-08-16T21:29:39.823Z,22.55
2022-08-16T21:32:13.838Z,22.17
2022-08-16T21:34:43.110Z,28.65
2022-08-16T21:37:11.663Z,24.70
2022-08-16T21:39:44.365Z,29.20
2022-08-16T21:42:15.442Z,26.48
2022-08-16T21:44:45.920Z,26.17
2022-08-16T21:47:14.322Z,25.75
2022-08-16T21:49:42.602Z,29.20
2022-08-16T21:52:13.253Z,28.75
2022-08-16T21:54:56.873Z,29.10
2022-08-16T21:57:25.312Z,25.05
2022-08-16T21:59:56.568Z,28.40
2022-08-16T22:02:35.838Z,32.22
2022-08-16T22:05:07.430Z,30.25
2022-08-16T22:07:36.051Z,34.22
2022-08-16T22:11:07.839Z,33.55
2022-08-16T22:12:54.042Z,38.30
2022-08-16T22:15:26.007Z,36.25
2022-08-16T22:17:56.501Z,34.58
2022-08-16T22:20:25.851Z,39.92
2022-08-16T22:23:04.678Z,40.85
2022-08-16T22:25:33.055Z,42.25
2022-08-16T22:28:01.464Z,42.25
2022-08-16T22:30:31.360Z,43.08
2022-08-16T22:32:59.518Z,44.50
2022-08-16T22:35:27.766Z,40.67
2022-08-16T22:38:50.620Z,42.10
2022-08-16T22:40:45.465Z,38.17
2022-08-16T22:43:14.852Z,40.38
2022-08-16T22:45:45.339Z,41.38
2022-08-16T22:48:15.045Z,43.80
2022-08-16T22:50:44.265Z,40.92
2022-08-16T22:53:14.400Z,38.97
2022-08-16T22:55:43.001Z,40.50
2022-08-16T22:58:12.552Z,38.08
2022-08-16T23:00:44.464Z,39.13
2022-08-16T23:03:14.723Z,37.83
2022-08-16T23:05:44.802Z,36.22
2022-08-16T23:08:38.221Z,32.78
2022-08-16T23:11:07.465Z,34.72
2022-08-16T23:13:36.053Z,32.70
2022-08-16T23:16:11.300Z,27.50
2022-08-16T23:18:40.565Z,27.83
2022-08-16T23:21:11.200Z,26.35
2022-08-16T23:23:39.916Z,26.42
2022-08-16T23:26:44.395Z,26.92
2022-08-16T23:28:58.386Z,27.70
2022-08-16T23:31:28.349Z,26.30
2022-08-16T23:33:56.738Z,30.80
2022-08-16T23:36:25.076Z,27.40
2022-08-16T23:38:53.438Z,28.17
2022-08-16T23:41:21.738Z,27.27
2022-08-16T23:43:50.154Z,32.67
2022-08-16T23:46:19.901Z,29.23
2022-08-16T23:50:01.898Z,27.00
2022-08-16T23:51:38.328Z,26.83
2022-08-16T23:54:09.746Z,28.17
2022-08-16T23:56:40.447Z,29.75
2022-08-16T23:59:09.456Z,27.10
